Time;durP1;ratioP1;P1;durP2;ratioP2;P2;SDS_P1;SDS_P2;PMS_P1;PMS_P2;Temp;Humidity;BMP_temperature;BMP_pressure;BME280_temperature;BME280_humidity;BME280_pressure;Samples;Min_cycle;Max_cycle;Signal;HPM_P1;HPM_P2
2022/03/05 00:01:17;;;;;;;28.20;12.98;;;;;;;;;;5094014;28;20103;-76
2022/03/05 00:03:43;;;;;;;37.90;15.98;;;;;;;;;;5087059;28;20119;-76
2022/03/05 00:06:09;;;;;;;31.17;14.63;;;;;;;;;;5092702;28;20046;-76
2022/03/05 00:08:36;;;;;;;31.85;16.77;;;;;;;;;;5086219;28;20071;-76
2022/03/05 00:11:02;;;;;;;38.40;18.00;;;;;;;;;;5089145;28;20028;-76
2022/03/05 00:13:28;;;;;;;32.55;16.58;;;;;;;;;;5089822;28;20052;-76
2022/03/05 00:15:54;;;;;;;33.70;16.95;;;;;;;;;;5073487;28;20020;-76
2022/03/05 00:18:20;;;;;;;38.13;17.13;;;;;;;;;;5091970;28;20078;-76
2022/03/05 00:20:47;;;;;;;35.53;18.80;;;;;;;;;;5073280;28;20107;-76
2022/03/05 00:23:14;;;;;;;35.70;18.38;;;;;;;;;;5071800;28;20041;-76
2022/03/05 00:25:40;;;;;;;35.78;18.45;;;;;;;;;;5072217;28;20434;-76
2022/03/05 00:28:06;;;;;;;36.92;17.75;;;;;;;;;;5081645;28;20036;-76
2022/03/05 00:30:32;;;;;;;38.67;19.45;;;;;;;;;;5092577;28;20115;-76
2022/03/05 00:32:59;;;;;;;36.60;18.65;;;;;;;;;;5083781;28;20066;-76
2022/03/05 00:35:25;;;;;;;43.28;19.30;;;;;;;;;;5071765;28;20032;-76
2022/03/05 00:37:51;;;;;;;34.05;16.17;;;;;;;;;;5071880;28;20041;-76
2022/03/05 00:40:17;;;;;;;33.90;16.63;;;;;;;;;;5088950;28;20034;-76
2022/03/05 00:42:43;;;;;;;38.05;17.05;;;;;;;;;;5077330;28;20045;-76
2022/03/05 00:45:09;;;;;;;29.10;15.55;;;;;;;;;;5071074;28;20087;-75
2022/03/05 00:47:36;;;;;;;32.10;15.40;;;;;;;;;;5071409;28;20036;-76
2022/03/05 00:50:04;;;;;;;33.45;16.50;;;;;;;;;;5071400;28;20036;-76
2022/03/05 00:52:31;;;;;;;38.08;17.23;;;;;;;;;;5075304;28;20119;-76
2022/03/05 00:54:57;;;;;;;38.28;18.83;;;;;;;;;;5082693;28;20036;-76
2022/03/05 00:57:23;;;;;;;36.58;17.67;;;;;;;;;;5091955;28;20036;-76
2022/03/05 00:59:48;;;;;;;35.67;18.90;;;;;;;;;;5091048;28;20066;-76
2022/03/05 01:02:15;;;;;;;38.85;19.73;;;;;;;;;;5091746;28;20024;-76
2022/03/05 01:04:41;;;;;;;38.50;19.77;;;;;;;;;;5091124;28;20024;-76
2022/03/05 01:07:07;;;;;;;39.22;20.92;;;;;;;;;;5091401;28;20082;-76
2022/03/05 01:09:33;;;;;;;54.92;25.52;;;;;;;;;;5088888;28;20024;-76
2022/03/05 01:11:59;;;;;;;51.90;26.65;;;;;;;;;;5071464;28;20481;-76
2022/03/05 01:14:25;;;;;;;56.97;30.08;;;;;;;;;;5071078;28;20060;-76
2022/03/05 01:16:51;;;;;;;59.22;28.77;;;;;;;;;;5090797;28;20397;-76
2022/03/05 01:19:17;;;;;;;52.67;25.75;;;;;;;;;;5091824;28;20039;-76
2022/03/05 01:21:43;;;;;;;46.80;25.65;;;;;;;;;;5090985;28;20474;-76
2022/03/05 01:24:09;;;;;;;49.55;25.00;;;;;;;;;;5091241;28;20099;-75
2022/03/05 01:26:35;;;;;;;45.08;22.40;;;;;;;;;;5090212;28;20028;-76
2022/03/05 01:29:01;;;;;;;47.20;22.88;;;;;;;;;;5091846;28;20038;-75
2022/03/05 01:31:27;;;;;;;45.88;22.95;;;;;;;;;;5082057;28;20063;-75
2022/03/05 01:33:53;;;;;;;39.40;20.52;;;;;;;;;;5078054;28;20739;-76
2022/03/05 01:36:19;;;;;;;39.10;19.40;;;;;;;;;;5091165;28;20024;-75
2022/03/05 01:38:45;;;;;;;32.85;16.95;;;;;;;;;;5085789;28;20114;-75
2022/03/05 01:41:11;;;;;;;36.90;17.67;;;;;;;;;;5073380;28;20050;-76
2022/03/05 01:43:37;;;;;;;35.17;16.10;;;;;;;;;;5090704;28;20042;-76
2022/03/05 01:46:03;;;;;;;32.63;16.08;;;;;;;;;;5090851;28;20028;-75
2022/03/05 01:48:29;;;;;;;34.88;16.20;;;;;;;;;;5090801;28;20757;-76
2022/03/05 01:50:55;;;;;;;28.27;14.40;;;;;;;;;;5081699;28;20114;-76
2022/03/05 01:53:21;;;;;;;29.83;14.32;;;;;;;;;;5070248;28;20029;-75
2022/03/05 01:55:47;;;;;;;26.60;13.60;;;;;;;;;;5070443;28;20036;-76
2022/03/05 01:58:13;;;;;;;22.90;11.75;;;;;;;;;;5070860;28;20040;-76
2022/03/05 02:00:39;;;;;;;25.90;11.25;;;;;;;;;;5084460;28;20032;-76
2022/03/05 02:03:05;;;;;;;24.63;11.45;;;;;;;;;;5072026;28;20047;-76
2022/03/05 02:05:31;;;;;;;24.08;12.45;;;;;;;;;;5075626;28;20723;-76
2022/03/05 02:07:58;;;;;;;21.42;10.50;;;;;;;;;;5070153;28;20039;-75
2022/03/05 02:10:24;;;;;;;21.25;10.80;;;;;;;;;;5074055;28;20321;-76
2022/03/05 02:12:50;;;;;;;21.95;10.50;;;;;;;;;;5070415;28;20041;-76
2022/03/05 02:15:16;;;;;;;19.75;9.48;;;;;;;;;;5069620;28;20863;-76
2022/03/05 02:17:42;;;;;;;21.08;10.30;;;;;;;;;;5070435;28;20039;-76
2022/03/05 02:20:08;;;;;;;24.80;10.00;;;;;;;;;;5078687;28;20031;-76
2022/03/05 02:22:34;;;;;;;28.33;13.20;;;;;;;;;;5071542;28;20686;-76
2022/03/05 02:25:03;;;;;;;31.27;15.57;;;;;;;;;;5079804;28;20030;-76
2022/03/05 02:27:29;;;;;;;34.45;16.27;;;;;;;;;;5083070;28;20111;-76
2022/03/05 02:29:55;;;;;;;35.25;15.75;;;;;;;;;;5078460;28;20383;-75
2022/03/05 02:32:22;;;;;;;32.47;14.48;;;;;;;;;;5083794;28;20024;-75
2022/03/05 02:34:48;;;;;;;31.55;13.43;;;;;;;;;;5079239;28;20031;-76
2022/03/05 02:37:15;;;;;;;31.90;13.27;;;;;;;;;;5077404;28;20020;-75
2022/03/05 02:39:42;;;;;;;25.58;12.07;;;;;;;;;;5082305;28;20024;-76
2022/03/05 02:42:08;;;;;;;23.83;10.60;;;;;;;;;;5085044;28;20024;-75
2022/03/05 02:44:34;;;;;;;29.70;11.50;;;;;;;;;;5071519;28;20056;-76
2022/03/05 02:47:00;;;;;;;25.77;11.20;;;;;;;;;;5088877;28;20512;-76
2022/03/05 02:49:26;;;;;;;26.65;12.15;;;;;;;;;;5073490;28;20033;-76
2022/03/05 02:51:52;;;;;;;26.48;12.07;;;;;;;;;;5079875;28;20024;-76
2022/03/05 02:54:19;;;;;;;29.40;13.45;;;;;;;;;;5085045;28;20062;-75
2022/03/05 02:56:45;;;;;;;26.17;12.18;;;;;;;;;;5075530;28;20849;-76
2022/03/05 02:59:11;;;;;;;23.60;11.02;;;;;;;;;;5070061;28;20044;-76
2022/03/05 03:01:37;;;;;;;26.75;11.55;;;;;;;;;;5083033;28;20137;-76
2022/03/05 03:04:03;;;;;;;21.60;10.73;;;;;;;;;;5090314;28;20458;-76
2022/03/05 03:06:29;;;;;;;22.27;10.18;;;;;;;;;;5087832;28;20062;-76
2022/03/05 03:08:55;;;;;;;24.98;11.35;;;;;;;;;;5089857;28;20036;-77
2022/03/05 03:11:21;;;;;;;25.33;12.40;;;;;;;;;;5089520;28;20058;-77
2022/03/05 03:13:47;;;;;;;24.08;10.18;;;;;;;;;;5089264;28;20117;-77
2022/03/05 03:16:13;;;;;;;27.13;10.88;;;;;;;;;;5089318;28;20028;-77
2022/03/05 03:18:39;;;;;;;22.48;10.75;;;;;;;;;;5085459;28;20045;-77
2022/03/05 03:21:05;;;;;;;26.33;12.35;;;;;;;;;;5069228;28;20039;-77
2022/03/05 03:23:31;;;;;;;21.92;10.85;;;;;;;;;;5079525;28;20388;-77
2022/03/05 03:25:57;;;;;;;25.27;11.05;;;;;;;;;;5085642;28;20028;-77
2022/03/05 03:28:23;;;;;;;25.33;11.68;;;;;;;;;;5081232;28;20047;-77
2022/03/05 03:30:49;;;;;;;25.13;12.63;;;;;;;;;;5089869;28;20110;-77
2022/03/05 03:33:16;;;;;;;30.20;13.82;;;;;;;;;;5088650;28;20032;-77
2022/03/05 03:35:42;;;;;;;26.35;12.40;;;;;;;;;;5089723;28;20371;-77
2022/03/05 03:38:08;;;;;;;30.73;14.00;;;;;;;;;;5088881;28;20493;-77
2022/03/05 03:40:34;;;;;;;26.25;11.75;;;;;;;;;;5072661;28;20028;-77
2022/03/05 03:43:00;;;;;;;27.92;11.95;;;;;;;;;;5074034;28;20044;-77
2022/03/05 03:45:26;;;;;;;22.52;11.15;;;;;;;;;;5068877;28;20051;-77
2022/03/05 03:47:52;;;;;;;31.33;13.70;;;;;;;;;;5069327;28;20033;-77
2022/03/05 03:50:19;;;;;;;25.70;12.77;;;;;;;;;;5084816;28;20107;-77
2022/03/05 03:52:46;;;;;;;28.98;13.32;;;;;;;;;;5093105;28;20044;-77
2022/03/05 03:55:13;;;;;;;29.02;12.23;;;;;;;;;;5087292;28;20059;-77
2022/03/05 03:57:39;;;;;;;24.20;12.25;;;;;;;;;;5093330;28;20063;-77
2022/03/05 04:00:06;;;;;;;23.70;11.80;;;;;;;;;;5072442;28;20059;-77
2022/03/05 04:02:32;;;;;;;22.10;11.40;;;;;;;;;;5072341;28;20045;-76
2022/03/05 04:04:58;;;;;;;21.02;9.68;;;;;;;;;;5080583;28;20054;-77
2022/03/05 04:10:09;;;;;;;19.63;10.18;;;;;;;;;;5092746;28;20042;-77
2022/03/05 04:12:35;;;;;;;20.02;9.32;;;;;;;;;;5088547;28;20037;-77
2022/03/05 04:15:02;;;;;;;22.75;10.38;;;;;;;;;;5072197;28;20107;-77
2022/03/05 04:17:28;;;;;;;23.10;9.73;;;;;;;;;;5089692;28;20032;-76
2022/03/05 04:19:54;;;;;;;21.35;10.93;;;;;;;;;;5092752;28;20031;-77
2022/03/05 04:22:20;;;;;;;21.23;10.20;;;;;;;;;;5091902;28;20028;-77
2022/03/05 04:24:46;;;;;;;22.25;10.68;;;;;;;;;;5091312;28;20040;-76
2022/03/05 04:27:12;;;;;;;24.30;10.88;;;;;;;;;;5088948;28;20086;-77
2022/03/05 04:29:38;;;;;;;20.02;10.15;;;;;;;;;;5075719;28;20559;-77
2022/03/05 04:32:05;;;;;;;19.67;9.65;;;;;;;;;;5077224;28;20060;-77
2022/03/05 04:34:31;;;;;;;22.00;9.68;;;;;;;;;;5092316;28;20484;-77
2022/03/05 04:36:57;;;;;;;20.92;10.27;;;;;;;;;;5077085;28;20031;-77
2022/03/05 04:39:23;;;;;;;19.48;9.73;;;;;;;;;;5090842;28;20040;-77
2022/03/05 04:41:49;;;;;;;19.60;10.00;;;;;;;;;;5092349;28;20851;-77
2022/03/05 04:44:15;;;;;;;23.77;10.40;;;;;;;;;;5084571;28;20119;-77
2022/03/05 04:46:41;;;;;;;24.05;9.60;;;;;;;;;;5072051;28;20063;-77
2022/03/05 04:49:08;;;;;;;19.27;9.73;;;;;;;;;;5071875;28;20032;-77
2022/03/05 04:51:35;;;;;;;24.77;11.07;;;;;;;;;;5075964;28;20016;-77
2022/03/05 04:54:01;;;;;;;21.30;9.10;;;;;;;;;;5073431;28;20076;-77
2022/03/05 04:56:27;;;;;;;24.17;9.80;;;;;;;;;;5092113;28;20036;-77
2022/03/05 04:58:53;;;;;;;29.02;12.15;;;;;;;;;;5092104;28;20044;-77
2022/03/05 05:01:19;;;;;;;40.25;16.35;;;;;;;;;;5091433;28;20032;-77
2022/03/05 05:03:45;;;;;;;44.97;16.88;;;;;;;;;;5092025;28;20465;-77
2022/03/05 05:06:11;;;;;;;31.20;13.32;;;;;;;;;;5074098;28;20101;-77
2022/03/05 05:08:38;;;;;;;24.95;11.10;;;;;;;;;;5072101;28;20863;-77
2022/03/05 05:11:04;;;;;;;24.05;10.18;;;;;;;;;;5080883;28;20021;-77
2022/03/05 05:13:30;;;;;;;24.55;10.05;;;;;;;;;;5070933;28;20059;-77
2022/03/05 05:15:56;;;;;;;39.20;17.50;;;;;;;;;;5077043;28;20029;-77
2022/03/05 05:18:22;;;;;;;27.55;12.90;;;;;;;;;;5078409;28;20073;-77
2022/03/05 05:20:48;;;;;;;30.08;12.60;;;;;;;;;;5091255;28;20102;-77
2022/03/05 05:23:14;;;;;;;30.58;12.85;;;;;;;;;;5091586;28;20036;-77
2022/03/05 05:25:40;;;;;;;30.27;11.00;;;;;;;;;;5090986;28;20032;-77
2022/03/05 05:28:06;;;;;;;26.63;11.55;;;;;;;;;;5091022;28;20043;-77
2022/03/05 05:30:32;;;;;;;27.30;12.50;;;;;;;;;;5071185;28;20108;-77
2022/03/05 05:32:58;;;;;;;25.48;11.93;;;;;;;;;;5071225;28;20032;-77
2022/03/05 05:35:24;;;;;;;25.80;11.65;;;;;;;;;;5087787;28;20097;-77
2022/03/05 05:37:50;;;;;;;27.00;12.27;;;;;;;;;;5070891;28;20493;-77
2022/03/05 05:40:16;;;;;;;24.55;11.35;;;;;;;;;;5076497;28;20064;-77
2022/03/05 05:42:42;;;;;;;25.30;10.57;;;;;;;;;;5070617;28;20036;-77
2022/03/05 05:45:09;;;;;;;24.35;10.20;;;;;;;;;;5070512;28;20089;-77
2022/03/05 05:47:35;;;;;;;23.95;10.73;;;;;;;;;;5090099;28;20036;-77
2022/03/05 05:50:01;;;;;;;22.38;9.20;;;;;;;;;;5090855;28;20024;-77
2022/03/05 05:52:27;;;;;;;22.42;10.07;;;;;;;;;;5072967;28;20047;-77
2022/03/05 05:54:53;;;;;;;28.17;10.98;;;;;;;;;;5070349;28;20033;-77
2022/03/05 05:57:19;;;;;;;24.08;10.80;;;;;;;;;;5070398;28;20675;-77
2022/03/05 05:59:45;;;;;;;23.20;10.50;;;;;;;;;;5082125;28;20032;-77
2022/03/05 06:02:11;;;;;;;21.95;10.38;;;;;;;;;;5086379;28;20379;-77
2022/03/05 06:04:37;;;;;;;23.30;11.07;;;;;;;;;;5075186;28;20032;-77
2022/03/05 06:07:03;;;;;;;24.27;10.38;;;;;;;;;;5089518;28;20032;-77
2022/03/05 06:09:29;;;;;;;22.45;10.63;;;;;;;;;;5071103;28;20039;-77
2022/03/05 06:11:56;;;;;;;24.17;11.15;;;;;;;;;;5081175;28;20035;-77
2022/03/05 06:14:22;;;;;;;24.55;11.15;;;;;;;;;;5079210;28;20053;-77
2022/03/05 06:16:48;;;;;;;25.25;11.18;;;;;;;;;;5079902;28;20032;-77
2022/03/05 06:19:14;;;;;;;20.98;10.40;;;;;;;;;;5079744;28;20123;-77
2022/03/05 06:21:40;;;;;;;20.92;10.35;;;;;;;;;;5072905;28;20107;-76
2022/03/05 06:24:07;;;;;;;27.48;12.68;;;;;;;;;;5081835;28;20039;-77
2022/03/05 06:26:34;;;;;;;23.83;12.27;;;;;;;;;;5080527;28;20055;-77
2022/03/05 06:29:00;;;;;;;22.40;12.07;;;;;;;;;;5076406;28;20032;-77
2022/03/05 06:31:26;;;;;;;25.88;12.27;;;;;;;;;;5085939;28;20032;-77
2022/03/05 06:33:52;;;;;;;24.00;11.63;;;;;;;;;;5087648;28;20036;-76
2022/03/05 06:36:18;;;;;;;24.48;11.80;;;;;;;;;;5077205;28;20036;-77
2022/03/05 06:38:44;;;;;;;24.35;11.70;;;;;;;;;;5077557;28;20037;-77
2022/03/05 06:41:10;;;;;;;24.35;11.80;;;;;;;;;;5068680;28;20024;-76
2022/03/05 06:43:36;;;;;;;24.13;12.77;;;;;;;;;;5071943;28;20072;-77
2022/03/05 06:46:02;;;;;;;27.55;11.45;;;;;;;;;;5079366;28;20052;-77
2022/03/05 06:48:28;;;;;;;21.25;10.85;;;;;;;;;;5082086;28;20032;-77
2022/03/05 06:50:54;;;;;;;22.50;10.68;;;;;;;;;;5085815;28;20730;-77
2022/03/05 06:53:20;;;;;;;23.52;12.50;;;;;;;;;;5068366;28;20470;-76
2022/03/05 06:55:46;;;;;;;24.10;12.10;;;;;;;;;;5075368;28;20067;-77
2022/03/05 06:58:14;;;;;;;31.05;13.48;;;;;;;;;;5084282;28;20064;-77
2022/03/05 07:00:40;;;;;;;26.15;12.45;;;;;;;;;;5081102;28;20032;-77
2022/03/05 07:03:06;;;;;;;23.60;12.82;;;;;;;;;;5080542;28;20039;-77
2022/03/05 07:05:32;;;;;;;25.27;12.57;;;;;;;;;;5077712;28;20028;-77
2022/03/05 07:07:58;;;;;;;23.70;12.60;;;;;;;;;;5079776;28;20734;-77
2022/03/05 07:10:24;;;;;;;28.27;12.05;;;;;;;;;;5086785;28;20099;-76
2022/03/05 07:12:50;;;;;;;25.45;13.07;;;;;;;;;;5077338;28;20036;-76
2022/03/05 07:15:17;;;;;;;22.70;12.55;;;;;;;;;;5071481;28;20056;-76
2022/03/05 07:17:50;;;;;;;26.83;12.20;;;;;;;;;;5081009;28;20032;-75
2022/03/05 07:20:16;;;;;;;26.83;13.32;;;;;;;;;;5082038;28;20383;-74
2022/03/05 07:22:42;;;;;;;28.17;13.55;;;;;;;;;;5078471;28;20040;-74
2022/03/05 07:25:08;;;;;;;28.83;13.55;;;;;;;;;;5078759;28;20035;-75
2022/03/05 07:27:34;;;;;;;25.23;13.77;;;;;;;;;;5086835;28;20066;-74
2022/03/05 07:30:00;;;;;;;26.95;13.38;;;;;;;;;;5080773;28;20028;-75
2022/03/05 07:32:26;;;;;;;31.60;16.05;;;;;;;;;;5080852;28;20944;-75
2022/03/05 07:34:52;;;;;;;32.55;18.83;;;;;;;;;;5080896;28;20111;-75
2022/03/05 07:37:18;;;;;;;35.63;18.45;;;;;;;;;;5080725;28;20024;-74
2022/03/05 07:39:44;;;;;;;41.15;21.23;;;;;;;;;;5074151;28;20033;-74
2022/03/05 07:42:11;;;;;;;37.63;20.30;;;;;;;;;;5078011;28;20048;-73
2022/03/05 07:44:37;;;;;;;36.70;19.65;;;;;;;;;;5075779;28;20036;-72
2022/03/05 07:47:03;;;;;;;37.60;22.00;;;;;;;;;;5073478;28;20020;-74
2022/03/05 07:49:29;;;;;;;39.45;20.20;;;;;;;;;;5073026;28;20067;-73
2022/03/05 07:51:56;;;;;;;49.42;25.13;;;;;;;;;;5078505;28;20463;-74
2022/03/05 07:54:23;;;;;;;51.42;21.17;;;;;;;;;;5077373;28;20413;-74
2022/03/05 07:56:49;;;;;;;39.15;18.42;;;;;;;;;;5074283;28;20066;-74
2022/03/05 07:59:15;;;;;;;43.08;17.60;;;;;;;;;;5082089;28;20044;-73
2022/03/05 08:01:41;;;;;;;38.08;17.65;;;;;;;;;;5079956;28;20033;-74
2022/03/05 08:04:07;;;;;;;29.38;15.18;;;;;;;;;;5072831;28;20523;-73
2022/03/05 08:06:33;;;;;;;37.42;17.27;;;;;;;;;;5071046;28;20032;-74
2022/03/05 08:08:59;;;;;;;32.22;15.88;;;;;;;;;;5075888;28;20063;-73
2022/03/05 08:11:26;;;;;;;30.42;14.80;;;;;;;;;;5082319;28;20515;-73
2022/03/05 08:13:52;;;;;;;30.85;13.05;;;;;;;;;;5081021;28;20056;-73
2022/03/05 08:16:18;;;;;;;30.65;13.20;;;;;;;;;;5075462;28;20687;-73
2022/03/05 08:18:44;;;;;;;39.83;12.98;;;;;;;;;;5084437;28;20128;-73
2022/03/05 08:21:10;;;;;;;24.73;11.38;;;;;;;;;;5080943;28;20031;-73
2022/03/05 08:23:36;;;;;;;35.53;11.70;;;;;;;;;;5081400;28;20033;-71
2022/03/05 08:26:02;;;;;;;22.65;10.13;;;;;;;;;;5083029;28;20024;-71
2022/03/05 08:28:28;;;;;;;18.25;10.15;;;;;;;;;;5075569;28;20115;-71
2022/03/05 08:30:54;;;;;;;22.73;9.73;;;;;;;;;;5079522;28;20116;-71
2022/03/05 08:33:21;;;;;;;20.55;9.75;;;;;;;;;;5078644;28;20170;-71
2022/03/05 08:35:48;;;;;;;17.60;9.40;;;;;;;;;;5076529;28;20020;-71
2022/03/05 08:38:14;;;;;;;19.70;9.65;;;;;;;;;;5075915;28;20047;-71
2022/03/05 08:40:40;;;;;;;17.58;9.13;;;;;;;;;;5081117;28;20090;-71
2022/03/05 08:43:07;;;;;;;16.92;9.00;;;;;;;;;;5076463;28;20040;-71
2022/03/05 08:45:33;;;;;;;19.92;9.40;;;;;;;;;;5078399;28;20024;-71
2022/03/05 08:47:59;;;;;;;18.88;10.95;;;;;;;;;;5081590;28;20462;-71
2022/03/05 08:50:25;;;;;;;16.70;8.98;;;;;;;;;;5074544;28;20024;-72
2022/03/05 08:52:51;;;;;;;17.95;8.73;;;;;;;;;;5076741;28;20039;-71
2022/03/05 08:55:17;;;;;;;17.48;9.25;;;;;;;;;;5074524;28;20360;-71
2022/03/05 08:57:43;;;;;;;17.95;7.50;;;;;;;;;;5073560;28;20047;-72
2022/03/05 09:00:11;;;;;;;18.02;7.47;;;;;;;;;;5076614;28;20031;-72
2022/03/05 09:02:37;;;;;;;17.67;8.48;;;;;;;;;;5074418;28;20471;-72
2022/03/05 09:05:03;;;;;;;14.93;8.10;;;;;;;;;;5075854;28;20252;-72
2022/03/05 09:07:30;;;;;;;15.80;8.38;;;;;;;;;;5080733;28;20459;-72
2022/03/05 09:09:56;;;;;;;16.00;7.85;;;;;;;;;;5073885;28;20120;-72
2022/03/05 09:12:22;;;;;;;15.60;7.93;;;;;;;;;;5078535;28;20123;-72
2022/03/05 09:14:48;;;;;;;17.70;8.35;;;;;;;;;;5074670;28;20056;-71
2022/03/05 09:17:15;;;;;;;15.77;8.07;;;;;;;;;;5080494;28;20382;-72
2022/03/05 09:19:41;;;;;;;15.43;8.20;;;;;;;;;;5073462;28;20122;-72
2022/03/05 09:22:09;;;;;;;14.93;7.55;;;;;;;;;;5073208;28;20054;-71
2022/03/05 09:24:35;;;;;;;14.88;7.97;;;;;;;;;;5077323;28;20032;-72
2022/03/05 09:27:01;;;;;;;20.50;8.48;;;;;;;;;;5085139;28;20051;-71
2022/03/05 09:29:27;;;;;;;18.20;8.98;;;;;;;;;;5072529;28;20056;-71
2022/03/05 09:31:54;;;;;;;18.00;9.35;;;;;;;;;;5073529;28;20056;-71
2022/03/05 09:34:19;;;;;;;16.02;9.55;;;;;;;;;;5073868;28;20507;-72
2022/03/05 09:36:45;;;;;;;19.30;8.52;;;;;;;;;;5075685;28;20132;-71
2022/03/05 09:39:11;;;;;;;18.85;8.82;;;;;;;;;;5078167;28;20093;-72
2022/03/05 09:41:41;;;;;;;19.52;8.90;;;;;;;;;;5076685;28;20028;-72
2022/03/05 09:44:07;;;;;;;16.85;8.52;;;;;;;;;;5078635;28;20083;-71
2022/03/05 09:46:34;;;;;;;16.00;8.25;;;;;;;;;;5071324;28;20045;-71
2022/03/05 09:49:01;;;;;;;14.65;8.07;;;;;;;;;;5073313;28;20054;-72
2022/03/05 09:51:27;;;;;;;15.05;8.80;;;;;;;;;;5070623;28;20036;-72
2022/03/05 09:53:54;;;;;;;15.13;8.85;;;;;;;;;;5082095;28;20031;-72
2022/03/05 09:56:20;;;;;;;16.13;8.10;;;;;;;;;;5073784;28;20036;-72
2022/03/05 09:58:47;;;;;;;15.95;9.07;;;;;;;;;;5076661;28;20040;-71
2022/03/05 10:01:13;;;;;;;18.77;10.02;;;;;;;;;;5070327;28;20032;-72
2022/03/05 10:03:43;;;;;;;15.77;8.95;;;;;;;;;;5072821;28;20040;-71
2022/03/05 10:06:16;;;;;;;17.45;10.07;;;;;;;;;;5073591;28;20032;-71
2022/03/05 10:08:43;;;;;;;18.13;9.65;;;;;;;;;;5080101;28;20044;-71
2022/03/05 10:11:11;;;;;;;15.38;9.35;;;;;;;;;;5077168;28;20028;-71
2022/03/05 10:13:38;;;;;;;21.27;10.48;;;;;;;;;;5082682;28;20097;-71
2022/03/05 10:16:05;;;;;;;15.18;9.85;;;;;;;;;;5073523;28;20024;-71
2022/03/05 10:18:33;;;;;;;15.48;9.02;;;;;;;;;;5070922;28;20085;-71
2022/03/05 10:21:00;;;;;;;16.30;8.48;;;;;;;;;;5078284;28;20032;-71
2022/03/05 10:23:26;;;;;;;19.60;10.65;;;;;;;;;;5072985;28;20512;-71
2022/03/05 10:25:53;;;;;;;17.23;9.27;;;;;;;;;;5072836;28;20042;-71
2022/03/05 10:28:20;;;;;;;18.33;10.27;;;;;;;;;;5071221;28;20139;-71
2022/03/05 10:30:51;;;;;;;19.05;10.52;;;;;;;;;;5074856;28;20032;-71
2022/03/05 10:33:23;;;;;;;18.98;11.55;;;;;;;;;;5076633;28;20058;-71
2022/03/05 10:35:50;;;;;;;16.55;9.32;;;;;;;;;;5087763;28;20043;-72
2022/03/05 10:38:15;;;;;;;16.98;10.32;;;;;;;;;;5075121;28;20069;-71
2022/03/05 10:40:41;;;;;;;20.85;9.98;;;;;;;;;;5076380;28;20024;-71
2022/03/05 10:43:08;;;;;;;17.15;10.35;;;;;;;;;;5076691;28;20381;-72
2022/03/05 10:45:53;;;;;;;15.30;9.57;;;;;;;;;;5078364;28;20032;-71
2022/03/05 10:48:30;;;;;;;19.27;10.27;;;;;;;;;;5073946;28;20123;-71
2022/03/05 10:51:02;;;;;;;17.40;9.80;;;;;;;;;;5071790;28;20141;-71
2022/03/05 10:53:39;;;;;;;18.85;10.70;;;;;;;;;;5069457;28;20559;-71
2022/03/05 10:56:41;;;;;;;14.68;9.35;;;;;;;;;;5073492;28;20020;-71
2022/03/05 10:59:10;;;;;;;16.52;10.63;;;;;;;;;;5017515;28;20053;-71
2022/03/05 11:01:40;;;;;;;18.33;10.60;;;;;;;;;;5069170;28;20070;-71
2022/03/05 11:04:07;;;;;;;19.15;11.25;;;;;;;;;;5073464;28;20041;-71
2022/03/05 11:06:38;;;;;;;21.95;11.18;;;;;;;;;;5075784;28;20465;-72
2022/03/05 11:09:05;;;;;;;18.00;10.35;;;;;;;;;;5072704;28;20040;-72
2022/03/05 11:11:32;;;;;;;16.63;10.52;;;;;;;;;;5071981;28;20028;-72
2022/03/05 11:13:58;;;;;;;19.67;10.70;;;;;;;;;;5077250;28;20080;-71
2022/03/05 11:16:26;;;;;;;17.35;11.23;;;;;;;;;;5070297;28;20028;-71
2022/03/05 11:18:52;;;;;;;17.05;11.63;;;;;;;;;;5071751;28;20032;-72
2022/03/05 11:21:18;;;;;;;20.25;11.40;;;;;;;;;;5072950;28;20056;-71
2022/03/05 11:23:44;;;;;;;16.80;11.10;;;;;;;;;;5075481;28;20050;-72
2022/03/05 11:26:13;;;;;;;17.50;11.70;;;;;;;;;;5072572;28;20028;-71
2022/03/05 11:28:40;;;;;;;17.65;10.80;;;;;;;;;;5075783;28;20039;-71
2022/03/05 11:31:07;;;;;;;18.00;11.00;;;;;;;;;;5071103;28;20082;-72
2022/03/05 11:33:43;;;;;;;16.30;10.43;;;;;;;;;;5070095;28;20043;-71
2022/03/05 11:36:23;;;;;;;18.75;10.02;;;;;;;;;;5079001;28;20020;-72
2022/03/05 11:38:49;;;;;;;19.00;12.40;;;;;;;;;;5070762;28;20039;-72
2022/03/05 11:41:18;;;;;;;16.92;10.65;;;;;;;;;;5071144;28;20103;-71
2022/03/05 11:43:44;;;;;;;16.70;10.88;;;;;;;;;;5071431;28;20123;-71
2022/03/05 11:46:20;;;;;;;17.63;10.82;;;;;;;;;;5071229;28;20576;-72
2022/03/05 11:48:59;;;;;;;16.75;10.75;;;;;;;;;;5070807;28;20040;-72
2022/03/05 11:51:25;;;;;;;20.60;11.77;;;;;;;;;;5072843;28;20103;-71
2022/03/05 11:54:05;;;;;;;16.60;10.20;;;;;;;;;;5079603;28;20051;-72
2022/03/05 11:56:31;;;;;;;18.35;10.80;;;;;;;;;;5076642;28;20028;-71
2022/03/05 11:58:57;;;;;;;21.13;11.75;;;;;;;;;;5070888;28;20032;-71
2022/03/05 12:01:50;;;;;;;18.90;11.82;;;;;;;;;;5067561;28;20758;-71
2022/03/05 12:04:17;;;;;;;20.33;12.27;;;;;;;;;;5078322;28;20086;-72
2022/03/05 12:06:44;;;;;;;16.30;11.10;;;;;;;;;;5072686;28;20066;-71
2022/03/05 12:09:30;;;;;;;17.92;11.38;;;;;;;;;;5070731;28;20036;-71
2022/03/05 12:11:56;;;;;;;17.30;11.02;;;;;;;;;;5076169;28;20490;-71
2022/03/05 12:14:22;;;;;;;19.73;11.57;;;;;;;;;;5074294;28;20063;-72
2022/03/05 12:16:48;;;;;;;17.70;11.00;;;;;;;;;;5074282;28;20031;-72
2022/03/05 12:19:15;;;;;;;19.15;12.00;;;;;;;;;;5079702;28;20029;-72
2022/03/05 12:21:41;;;;;;;19.77;12.30;;;;;;;;;;5073839;28;20451;-73
2022/03/05 12:24:09;;;;;;;17.17;11.75;;;;;;;;;;5079072;28;20461;-72
2022/03/05 12:26:50;;;;;;;17.92;11.10;;;;;;;;;;5081660;28;20105;-73
2022/03/05 12:29:16;;;;;;;18.75;12.07;;;;;;;;;;5075211;28;20063;-72
2022/03/05 12:31:43;;;;;;;21.67;12.80;;;;;;;;;;5074905;28;20470;-72
2022/03/05 12:34:10;;;;;;;18.10;11.48;;;;;;;;;;5078881;28;20044;-72
2022/03/05 12:36:46;;;;;;;18.38;12.93;;;;;;;;;;5085092;28;20050;-72
2022/03/05 12:39:14;;;;;;;21.58;13.48;;;;;;;;;;5092561;28;20489;-72
2022/03/05 12:41:41;;;;;;;24.70;13.23;;;;;;;;;;5081248;28;20046;-73
2022/03/05 12:44:11;;;;;;;21.10;11.55;;;;;;;;;;5088653;28;20084;-73
2022/03/05 12:46:37;;;;;;;18.98;11.13;;;;;;;;;;5094890;28;20764;-73
2022/03/05 12:49:04;;;;;;;17.58;10.63;;;;;;;;;;5079709;28;20036;-73
2022/03/05 12:51:31;;;;;;;21.55;10.65;;;;;;;;;;5091392;28;20134;-72
2022/03/05 12:53:58;;;;;;;16.80;10.35;;;;;;;;;;5078965;28;20066;-72
2022/03/05 12:56:24;;;;;;;19.52;11.82;;;;;;;;;;5082621;28;20036;-73
2022/03/05 12:58:55;;;;;;;18.65;11.13;;;;;;;;;;5094508;28;20035;-73
2022/03/05 13:01:21;;;;;;;17.73;11.38;;;;;;;;;;5081038;28;20027;-72
2022/03/05 13:03:47;;;;;;;17.67;11.70;;;;;;;;;;5082529;28;20043;-73
2022/03/05 13:06:13;;;;;;;18.35;10.60;;;;;;;;;;5085631;28;20462;-72
2022/03/05 13:08:40;;;;;;;21.02;11.48;;;;;;;;;;5089194;28;20040;-72
2022/03/05 13:11:13;;;;;;;16.67;9.85;;;;;;;;;;5081814;28;20469;-72
2022/03/05 13:13:41;;;;;;;18.13;10.77;;;;;;;;;;5090732;28;20080;-73
2022/03/05 13:16:08;;;;;;;16.63;10.43;;;;;;;;;;5088180;28;21230;-73
2022/03/05 13:18:34;;;;;;;17.42;10.75;;;;;;;;;;5081388;28;20399;-72
2022/03/05 13:21:01;;;;;;;17.75;9.95;;;;;;;;;;5078189;28;20478;-72
2022/03/05 13:23:28;;;;;;;21.45;11.23;;;;;;;;;;5072862;28;20040;-72
2022/03/05 13:25:54;;;;;;;16.25;10.35;;;;;;;;;;5075348;28;20064;-72
2022/03/05 13:28:22;;;;;;;17.45;10.27;;;;;;;;;;5072945;28;20032;-73
2022/03/05 13:30:52;;;;;;;15.88;10.30;;;;;;;;;;5081560;28;20116;-73
2022/03/05 13:33:41;;;;;;;18.98;9.70;;;;;;;;;;5084135;28;20089;-72
2022/03/05 13:36:12;;;;;;;13.50;8.20;;;;;;;;;;5075980;28;20059;-72
2022/03/05 13:38:38;;;;;;;13.65;9.20;;;;;;;;;;5076509;28;20032;-72
2022/03/05 13:41:04;;;;;;;16.70;9.13;;;;;;;;;;5091867;28;20036;-72
2022/03/05 13:43:35;;;;;;;15.43;8.73;;;;;;;;;;5073180;28;20062;-73
2022/03/05 13:46:01;;;;;;;13.63;8.15;;;;;;;;;;5085336;28;20031;-73
2022/03/05 13:48:28;;;;;;;15.18;8.48;;;;;;;;;;5083757;28;20070;-73
2022/03/05 13:50:54;;;;;;;14.85;8.45;;;;;;;;;;5075445;28;20047;-72
2022/03/05 13:53:21;;;;;;;11.80;6.75;;;;;;;;;;5074328;28;20456;-72
2022/03/05 13:56:00;;;;;;;12.32;7.55;;;;;;;;;;5092436;28;20019;-73
2022/03/05 13:58:26;;;;;;;10.50;6.78;;;;;;;;;;5069830;28;20032;-73
2022/03/05 14:00:52;;;;;;;11.50;6.78;;;;;;;;;;5081475;28;20115;-73
2022/03/05 14:03:18;;;;;;;10.05;5.70;;;;;;;;;;5074633;28;20465;-73
2022/03/05 14:05:44;;;;;;;10.05;5.13;;;;;;;;;;5087979;28;20024;-72
2022/03/05 14:08:10;;;;;;;8.65;4.88;;;;;;;;;;5078081;28;20085;-73
2022/03/05 14:10:38;;;;;;;10.05;5.95;;;;;;;;;;5085857;28;20745;-72
2022/03/05 14:13:05;;;;;;;10.52;5.82;;;;;;;;;;5074079;28;20053;-73
2022/03/05 14:15:32;;;;;;;11.00;6.45;;;;;;;;;;5090419;28;20471;-72
2022/03/05 14:18:02;;;;;;;12.15;6.72;;;;;;;;;;5088681;28;20037;-72
2022/03/05 14:20:30;;;;;;;10.77;5.38;;;;;;;;;;5072039;28;20035;-73
2022/03/05 14:23:05;;;;;;;10.95;6.00;;;;;;;;;;5081293;28;20545;-73